sensor_id;sensor_type;location;lat;lon;timestamp;P1;durP1;ratioP1;P2;durP2;ratioP2
2848;SDS011;59355;52.416;13.412;2023-02-25T00:02:07;7.70;;;3.33;;
2848;SDS011;59355;52.416;13.412;2023-02-25T00:04:33;8.20;;;4.00;;
2848;SDS011;59355;52.416;13.412;2023-02-25T00:06:58;14.83;;;4.70;;
2848;SDS011;59355;52.416;13.412;2023-02-25T00:09:24;11.40;;;5.80;;
2848;SDS011;59355;52.416;13.412;2023-02-25T00:11:49;8.97;;;4.83;;
2848;SDS011;59355;52.416;13.412;2023-02-25T00:14:14;9.17;;;4.13;;
2848;SDS011;59355;52.416;13.412;2023-02-25T00:16:40;8.53;;;3.43;;
2848;SDS011;59355;52.416;13.412;2023-02-25T00:19:05;15.50;;;5.77;;
2848;SDS011;59355;52.416;13.412;2023-02-25T00:21:30;10.57;;;5.27;;
2848;SDS011;59355;52.416;13.412;2023-02-25T00:23:56;9.67;;;4.33;;
2848;SDS011;59355;52.416;13.412;2023-02-25T00:26:21;11.90;;;4.43;;
2848;SDS011;59355;52.416;13.412;2023-02-25T00:28:47;11.67;;;5.07;;
2848;SDS011;59355;52.416;13.412;2023-02-25T00:31:14;8.57;;;4.43;;
2848;SDS011;59355;52.416;13.412;2023-02-25T00:33:40;20.73;;;6.00;;
2848;SDS011;59355;52.416;13.412;2023-02-25T00:36:07;13.30;;;5.10;;
2848;SDS011;59355;52.416;13.412;2023-02-25T00:38:33;9.10;;;4.10;;
2848;SDS011;59355;52.416;13.412;2023-02-25T00:41:03;10.70;;;4.50;;
2848;SDS011;59355;52.416;13.412;2023-02-25T00:43:41;16.50;;;5.53;;
2848;SDS011;59355;52.416;13.412;2023-02-25T00:46:08;8.50;;;4.97;;
2848;SDS011;59355;52.416;13.412;2023-02-25T00:48:34;7.70;;;3.07;;
2848;SDS011;59355;52.416;13.412;2023-02-25T00:51:04;12.73;;;3.00;;
2848;SDS011;59355;52.416;13.412;2023-02-25T00:53:31;8.10;;;3.73;;
2848;SDS011;59355;52.416;13.412;2023-02-25T00:55:59;4.70;;;2.87;;
2848;SDS011;59355;52.416;13.412;2023-02-25T00:58:25;5.63;;;3.23;;
2848;SDS011;59355;52.416;13.412;2023-02-25T01:00:50;6.73;;;2.87;;
2848;SDS011;59355;52.416;13.412;2023-02-25T01:03:15;8.47;;;3.13;;
2848;SDS011;59355;52.416;13.412;2023-02-25T01:05:41;12.83;;;3.47;;
2848;SDS011;59355;52.416;13.412;2023-02-25T01:08:06;7.00;;;3.00;;
2848;SDS011;59355;52.416;13.412;2023-02-25T01:10:32;10.67;;;3.17;;
2848;SDS011;59355;52.416;13.412;2023-02-25T01:12:57;3.13;;;2.73;;
2848;SDS011;59355;52.416;13.412;2023-02-25T01:15:22;4.93;;;3.40;;
2848;SDS011;59355;52.416;13.412;2023-02-25T01:17:47;4.40;;;2.50;;
2848;SDS011;59355;52.416;13.412;2023-02-25T01:20:13;11.30;;;3.47;;
2848;SDS011;59355;52.416;13.412;2023-02-25T01:22:43;10.23;;;4.00;;
2848;SDS011;59355;52.416;13.412;2023-02-25T01:25:10;11.10;;;4.10;;
2848;SDS011;59355;52.416;13.412;2023-02-25T01:27:37;9.90;;;4.10;;
2848;SDS011;59355;52.416;13.412;2023-02-25T01:30:02;5.30;;;3.63;;
2848;SDS011;59355;52.416;13.412;2023-02-25T01:32:29;5.17;;;3.30;;
2848;SDS011;59355;52.416;13.412;2023-02-25T01:34:54;8.83;;;4.23;;
2848;SDS011;59355;52.416;13.412;2023-02-25T01:37:20;7.53;;;3.80;;
2848;SDS011;59355;52.416;13.412;2023-02-25T01:39:45;10.47;;;4.60;;
2848;SDS011;59355;52.416;13.412;2023-02-25T01:42:15;11.13;;;4.10;;
2848;SDS011;59355;52.416;13.412;2023-02-25T01:47:50;13.00;;;4.63;;
2848;SDS011;59355;52.416;13.412;2023-02-25T01:50:18;9.17;;;5.13;;
2848;SDS011;59355;52.416;13.412;2023-02-25T01:52:44;17.10;;;4.77;;
2848;SDS011;59355;52.416;13.412;2023-02-25T01:55:09;7.40;;;4.50;;
2848;SDS011;59355;52.416;13.412;2023-02-25T01:57:35;10.43;;;4.53;;
2848;SDS011;59355;52.416;13.412;2023-02-25T02:00:00;11.30;;;6.70;;
2848;SDS011;59355;52.416;13.412;2023-02-25T02:02:32;10.67;;;4.60;;
2848;SDS011;59355;52.416;13.412;2023-02-25T02:04:57;7.87;;;4.67;;
2848;SDS011;59355;52.416;13.412;2023-02-25T02:07:23;10.90;;;5.70;;
2848;SDS011;59355;52.416;13.412;2023-02-25T02:09:51;12.70;;;5.60;;
2848;SDS011;59355;52.416;13.412;2023-02-25T02:12:24;8.37;;;5.40;;
2848;SDS011;59355;52.416;13.412;2023-02-25T02:14:51;8.97;;;4.30;;
2848;SDS011;59355;52.416;13.412;2023-02-25T02:17:21;6.10;;;4.00;;
2848;SDS011;59355;52.416;13.412;2023-02-25T02:28:11;3.80;;;3.30;;
2848;SDS011;59355;52.416;13.412;2023-02-25T02:31:07;9.83;;;4.17;;
2848;SDS011;59355;52.416;13.412;2023-02-25T02:42:15;4.10;;;3.00;;
2848;SDS011;59355;52.416;13.412;2023-02-25T02:44:52;4.30;;;3.03;;
2848;SDS011;59355;52.416;13.412;2023-02-25T02:47:22;3.97;;;3.57;;
2848;SDS011;59355;52.416;13.412;2023-02-25T02:49:54;4.63;;;3.03;;
2848;SDS011;59355;52.416;13.412;2023-02-25T02:52:26;3.23;;;3.03;;
2848;SDS011;59355;52.416;13.412;2023-02-25T02:54:56;4.37;;;3.97;;
2848;SDS011;59355;52.416;13.412;2023-02-25T02:57:24;3.50;;;3.20;;
2848;SDS011;59355;52.416;13.412;2023-02-25T02:59:54;4.47;;;3.03;;
2848;SDS011;59355;52.416;13.412;2023-02-25T03:02:32;3.83;;;3.50;;
2848;SDS011;59355;52.416;13.412;2023-02-25T03:05:01;4.93;;;3.50;;
2848;SDS011;59355;52.416;13.412;2023-02-25T03:07:30;4.37;;;3.47;;
2848;SDS011;59355;52.416;13.412;2023-02-25T03:10:00;4.67;;;3.80;;
2848;SDS011;59355;52.416;13.412;2023-02-25T03:12:28;3.73;;;3.27;;
2848;SDS011;59355;52.416;13.412;2023-02-25T03:14:54;3.47;;;3.17;;
2848;SDS011;59355;52.416;13.412;2023-02-25T03:17:24;8.43;;;3.70;;
2848;SDS011;59355;52.416;13.412;2023-02-25T03:20:11;3.80;;;3.50;;
2848;SDS011;59355;52.416;13.412;2023-02-25T03:22:41;4.00;;;3.23;;
2848;SDS011;59355;52.416;13.412;2023-02-25T03:25:17;3.93;;;3.10;;
2848;SDS011;59355;52.416;13.412;2023-02-25T03:27:45;3.90;;;3.60;;
2848;SDS011;59355;52.416;13.412;2023-02-25T03:30:17;3.43;;;2.90;;
2848;SDS011;59355;52.416;13.412;2023-02-25T03:32:48;3.43;;;3.00;;
2848;SDS011;59355;52.416;13.412;2023-02-25T03:35:18;4.43;;;3.37;;
2848;SDS011;59355;52.416;13.412;2023-02-25T03:37:45;3.37;;;2.93;;
2848;SDS011;59355;52.416;13.412;2023-02-25T03:40:15;4.37;;;3.17;;
2848;SDS011;59355;52.416;13.412;2023-02-25T03:42:47;4.17;;;3.83;;
2848;SDS011;59355;52.416;13.412;2023-02-25T03:45:16;4.33;;;2.80;;
2848;SDS011;59355;52.416;13.412;2023-02-25T03:47:41;3.00;;;2.70;;
2848;SDS011;59355;52.416;13.412;2023-02-25T03:50:15;2.93;;;2.63;;
2848;SDS011;59355;52.416;13.412;2023-02-25T03:52:44;2.90;;;2.70;;
2848;SDS011;59355;52.416;13.412;2023-02-25T03:55:10;3.00;;;2.80;;
2848;SDS011;59355;52.416;13.412;2023-02-25T03:57:37;3.57;;;2.77;;
2848;SDS011;59355;52.416;13.412;2023-02-25T04:00:24;2.40;;;2.20;;
2848;SDS011;59355;52.416;13.412;2023-02-25T04:02:50;3.23;;;2.60;;
2848;SDS011;59355;52.416;13.412;2023-02-25T04:05:17;3.40;;;2.60;;
2848;SDS011;59355;52.416;13.412;2023-02-25T04:07:43;3.00;;;2.80;;
2848;SDS011;59355;52.416;13.412;2023-02-25T04:10:10;2.87;;;2.30;;
2848;SDS011;59355;52.416;13.412;2023-02-25T04:12:36;2.50;;;2.30;;
2848;SDS011;59355;52.416;13.412;2023-02-25T04:15:02;3.23;;;2.77;;
2848;SDS011;59355;52.416;13.412;2023-02-25T04:17:28;2.97;;;2.77;;
2848;SDS011;59355;52.416;13.412;2023-02-25T04:19:53;2.60;;;2.40;;
2848;SDS011;59355;52.416;13.412;2023-02-25T04:22:18;2.70;;;2.50;;
2848;SDS011;59355;52.416;13.412;2023-02-25T04:24:44;2.50;;;2.30;;
2848;SDS011;59355;52.416;13.412;2023-02-25T04:27:09;4.00;;;3.70;;
2848;SDS011;59355;52.416;13.412;2023-02-25T04:29:35;4.07;;;2.93;;
2848;SDS011;59355;52.416;13.412;2023-02-25T04:32:00;2.50;;;2.30;;
2848;SDS011;59355;52.416;13.412;2023-02-25T04:34:25;3.63;;;2.57;;
2848;SDS011;59355;52.416;13.412;2023-02-25T04:36:51;2.40;;;2.20;;
2848;SDS011;59355;52.416;13.412;2023-02-25T04:39:17;2.67;;;2.43;;
2848;SDS011;59355;52.416;13.412;2023-02-25T04:41:42;2.73;;;2.53;;
2848;SDS011;59355;52.416;13.412;2023-02-25T04:44:08;2.83;;;2.50;;
2848;SDS011;59355;52.416;13.412;2023-02-25T04:46:35;2.77;;;2.50;;
2848;SDS011;59355;52.416;13.412;2023-02-25T04:49:01;2.80;;;2.60;;
2848;SDS011;59355;52.416;13.412;2023-02-25T04:51:27;3.60;;;2.57;;
2848;SDS011;59355;52.416;13.412;2023-02-25T04:53:52;3.57;;;3.27;;
2848;SDS011;59355;52.416;13.412;2023-02-25T04:56:17;2.97;;;2.67;;
2848;SDS011;59355;52.416;13.412;2023-02-25T04:58:43;3.27;;;2.97;;
2848;SDS011;59355;52.416;13.412;2023-02-25T05:01:09;2.97;;;2.60;;
2848;SDS011;59355;52.416;13.412;2023-02-25T05:03:35;3.20;;;2.90;;
2848;SDS011;59355;52.416;13.412;2023-02-25T05:06:00;5.20;;;3.00;;
2848;SDS011;59355;52.416;13.412;2023-02-25T05:08:26;3.27;;;2.97;;
2848;SDS011;59355;52.416;13.412;2023-02-25T05:10:51;3.47;;;2.90;;
2848;SDS011;59355;52.416;13.412;2023-02-25T05:13:17;3.50;;;3.20;;
2848;SDS011;59355;52.416;13.412;2023-02-25T05:15:43;6.37;;;3.33;;
2848;SDS011;59355;52.416;13.412;2023-02-25T05:18:09;3.60;;;3.30;;
2848;SDS011;59355;52.416;13.412;2023-02-25T05:20:39;4.60;;;3.00;;
2848;SDS011;59355;52.416;13.412;2023-02-25T05:23:05;3.27;;;2.60;;
2848;SDS011;59355;52.416;13.412;2023-02-25T05:25:31;3.93;;;2.90;;
2848;SDS011;59355;52.416;13.412;2023-02-25T05:27:57;6.10;;;3.00;;
2848;SDS011;59355;52.416;13.412;2023-02-25T05:30:23;4.87;;;4.10;;
2848;SDS011;59355;52.416;13.412;2023-02-25T05:32:48;3.20;;;2.90;;
2848;SDS011;59355;52.416;13.412;2023-02-25T05:35:13;4.27;;;2.60;;
2848;SDS011;59355;52.416;13.412;2023-02-25T05:37:39;2.90;;;2.70;;
2848;SDS011;59355;52.416;13.412;2023-02-25T05:40:04;2.57;;;2.37;;
2848;SDS011;59355;52.416;13.412;2023-02-25T05:42:31;2.50;;;2.30;;
2848;SDS011;59355;52.416;13.412;2023-02-25T05:44:56;3.30;;;2.77;;
2848;SDS011;59355;52.416;13.412;2023-02-25T05:47:21;3.47;;;2.70;;
2848;SDS011;59355;52.416;13.412;2023-02-25T05:49:47;3.80;;;2.43;;
2848;SDS011;59355;52.416;13.412;2023-02-25T05:52:12;2.70;;;2.50;;
2848;SDS011;59355;52.416;13.412;2023-02-25T05:54:38;2.80;;;2.60;;
2848;SDS011;59355;52.416;13.412;2023-02-25T05:57:04;2.80;;;2.47;;
2848;SDS011;59355;52.416;13.412;2023-02-25T05:59:29;3.83;;;2.57;;
2848;SDS011;59355;52.416;13.412;2023-02-25T06:01:55;3.43;;;2.93;;
2848;SDS011;59355;52.416;13.412;2023-02-25T06:04:20;3.03;;;2.77;;
2848;SDS011;59355;52.416;13.412;2023-02-25T06:06:46;4.50;;;3.70;;
2848;SDS011;59355;52.416;13.412;2023-02-25T06:09:14;2.90;;;2.70;;
2848;SDS011;59355;52.416;13.412;2023-02-25T06:11:45;3.17;;;2.70;;
2848;SDS011;59355;52.416;13.412;2023-02-25T06:14:12;4.47;;;3.13;;
2848;SDS011;59355;52.416;13.412;2023-02-25T06:16:38;3.27;;;2.97;;
2848;SDS011;59355;52.416;13.412;2023-02-25T06:19:05;4.07;;;3.03;;
2848;SDS011;59355;52.416;13.412;2023-02-25T06:21:32;3.30;;;3.00;;
2848;SDS011;59355;52.416;13.412;2023-02-25T06:23:59;5.50;;;4.30;;
2848;SDS011;59355;52.416;13.412;2023-02-25T06:26:25;7.17;;;2.80;;
2848;SDS011;59355;52.416;13.412;2023-02-25T06:28:51;3.13;;;2.83;;
2848;SDS011;59355;52.416;13.412;2023-02-25T06:31:18;3.40;;;3.10;;
2848;SDS011;59355;52.416;13.412;2023-02-25T06:33:44;3.73;;;2.53;;
2848;SDS011;59355;52.416;13.412;2023-02-25T06:36:10;3.23;;;2.93;;
2848;SDS011;59355;52.416;13.412;2023-02-25T06:38:37;2.90;;;2.60;;
2848;SDS011;59355;52.416;13.412;2023-02-25T06:41:06;3.10;;;2.80;;
2848;SDS011;59355;52.416;13.412;2023-02-25T06:43:36;2.83;;;2.63;;
2848;SDS011;59355;52.416;13.412;2023-02-25T06:46:03;3.20;;;2.90;;
2848;SDS011;59355;52.416;13.412;2023-02-25T06:48:29;3.50;;;3.17;;
2848;SDS011;59355;52.416;13.412;2023-02-25T06:50:55;3.50;;;3.20;;
2848;SDS011;59355;52.416;13.412;2023-02-25T06:53:20;3.40;;;2.87;;
2848;SDS011;59355;52.416;13.412;2023-02-25T06:55:48;2.97;;;2.47;;
2848;SDS011;59355;52.416;13.412;2023-02-25T06:58:13;2.50;;;2.30;;
2848;SDS011;59355;52.416;13.412;2023-02-25T07:00:41;3.10;;;2.73;;
2848;SDS011;59355;52.416;13.412;2023-02-25T07:03:09;3.37;;;2.90;;
2848;SDS011;59355;52.416;13.412;2023-02-25T07:05:37;2.70;;;2.50;;
2848;SDS011;59355;52.416;13.412;2023-02-25T07:08:02;3.00;;;2.43;;
2848;SDS011;59355;52.416;13.412;2023-02-25T07:10:29;3.27;;;3.00;;
2848;SDS011;59355;52.416;13.412;2023-02-25T07:12:54;3.30;;;3.00;;
2848;SDS011;59355;52.416;13.412;2023-02-25T07:15:20;2.73;;;2.53;;
2848;SDS011;59355;52.416;13.412;2023-02-25T07:17:45;3.30;;;2.87;;
2848;SDS011;59355;52.416;13.412;2023-02-25T07:20:11;3.10;;;2.87;;
2848;SDS011;59355;52.416;13.412;2023-02-25T07:22:36;2.77;;;2.57;;
2848;SDS011;59355;52.416;13.412;2023-02-25T07:25:02;3.60;;;3.10;;
2848;SDS011;59355;52.416;13.412;2023-02-25T07:27:27;3.60;;;2.40;;
2848;SDS011;59355;52.416;13.412;2023-02-25T07:29:53;3.70;;;2.80;;
2848;SDS011;59355;52.416;13.412;2023-02-25T07:32:19;3.20;;;2.60;;
2848;SDS011;59355;52.416;13.412;2023-02-25T07:34:44;2.60;;;2.30;;
2848;SDS011;59355;52.416;13.412;2023-02-25T07:37:09;2.80;;;2.60;;
2848;SDS011;59355;52.416;13.412;2023-02-25T07:39:36;3.33;;;2.60;;
2848;SDS011;59355;52.416;13.412;2023-02-25T07:42:02;2.50;;;2.30;;
2848;SDS011;59355;52.416;13.412;2023-02-25T07:44:27;2.70;;;2.50;;
2848;SDS011;59355;52.416;13.412;2023-02-25T07:46:52;3.23;;;2.03;;
2848;SDS011;59355;52.416;13.412;2023-02-25T07:49:18;2.90;;;2.60;;
2848;SDS011;59355;52.416;13.412;2023-02-25T07:51:43;2.60;;;2.37;;
2848;SDS011;59355;52.416;13.412;2023-02-25T07:54:08;1.60;;;1.50;;
2848;SDS011;59355;52.416;13.412;2023-02-25T07:56:33;2.10;;;2.00;;
2848;SDS011;59355;52.416;13.412;2023-02-25T07:58:59;2.47;;;2.27;;
2848;SDS011;59355;52.416;13.412;2023-02-25T08:01:29;2.60;;;2.40;;
2848;SDS011;59355;52.416;13.412;2023-02-25T08:03:56;3.20;;;2.53;;
2848;SDS011;59355;52.416;13.412;2023-02-25T08:06:23;2.27;;;2.07;;
2848;SDS011;59355;52.416;13.412;2023-02-25T08:08:49;2.30;;;2.10;;
2848;SDS011;59355;52.416;13.412;2023-02-25T08:11:19;2.70;;;2.30;;
2848;SDS011;59355;52.416;13.412;2023-02-25T08:13:45;3.13;;;2.93;;
2848;SDS011;59355;52.416;13.412;2023-02-25T08:16:12;2.87;;;2.53;;
2848;SDS011;59355;52.416;13.412;2023-02-25T08:18:39;2.27;;;2.07;;
2848;SDS011;59355;52.416;13.412;2023-02-25T08:21:08;2.83;;;2.53;;
2848;SDS011;59355;52.416;13.412;2023-02-25T08:23:38;2.90;;;2.30;;
2848;SDS011;59355;52.416;13.412;2023-02-25T08:26:04;2.73;;;2.50;;
2848;SDS011;59355;52.416;13.412;2023-02-25T08:28:29;4.33;;;2.13;;
2848;SDS011;59355;52.416;13.412;2023-02-25T08:30:55;2.73;;;2.53;;
2848;SDS011;59355;52.416;13.412;2023-02-25T08:33:20;3.07;;;2.60;;
2848;SDS011;59355;52.416;13.412;2023-02-25T08:35:46;2.57;;;2.37;;
2848;SDS011;59355;52.416;13.412;2023-02-25T08:38:11;2.40;;;2.20;;
2848;SDS011;59355;52.416;13.412;2023-02-25T08:40:40;2.43;;;2.23;;
2848;SDS011;59355;52.416;13.412;2023-02-25T08:43:06;2.30;;;2.10;;
2848;SDS011;59355;52.416;13.412;2023-02-25T08:45:31;2.40;;;2.20;;
2848;SDS011;59355;52.416;13.412;2023-02-25T08:47:56;2.40;;;2.20;;
2848;SDS011;59355;52.416;13.412;2023-02-25T08:50:22;2.53;;;1.80;;
2848;SDS011;59355;52.416;13.412;2023-02-25T08:52:48;2.40;;;2.20;;
2848;SDS011;59355;52.416;13.412;2023-02-25T08:55:13;1.80;;;1.70;;
2848;SDS011;59355;52.416;13.412;2023-02-25T08:57:39;2.10;;;1.90;;
2848;SDS011;59355;52.416;13.412;2023-02-25T09:00:05;3.00;;;1.90;;
2848;SDS011;59355;52.416;13.412;2023-02-25T09:02:33;2.43;;;2.23;;
2848;SDS011;59355;52.416;13.412;2023-02-25T09:04:58;2.80;;;2.60;;
2848;SDS011;59355;52.416;13.412;2023-02-25T09:07:24;2.97;;;2.13;;
2848;SDS011;59355;52.416;13.412;2023-02-25T09:09:49;2.40;;;2.20;;
2848;SDS011;59355;52.416;13.412;2023-02-25T09:12:14;2.40;;;2.20;;
2848;SDS011;59355;52.416;13.412;2023-02-25T09:14:40;2.20;;;2.00;;
2848;SDS011;59355;52.416;13.412;2023-02-25T09:17:05;2.00;;;1.80;;
2848;SDS011;59355;52.416;13.412;2023-02-25T09:19:31;2.13;;;1.93;;
2848;SDS011;59355;52.416;13.412;2023-02-25T09:21:57;2.00;;;1.60;;
2848;SDS011;59355;52.416;13.412;2023-02-25T09:24:22;2.10;;;1.90;;
2848;SDS011;59355;52.416;13.412;2023-02-25T09:26:48;2.30;;;2.10;;
2848;SDS011;59355;52.416;13.412;2023-02-25T09:29:13;2.30;;;2.10;;
2848;SDS011;59355;52.416;13.412;2023-02-25T09:31:38;2.00;;;1.80;;
2848;SDS011;59355;52.416;13.412;2023-02-25T09:34:05;1.70;;;1.60;;
2848;SDS011;59355;52.416;13.412;2023-02-25T09:36:32;2.00;;;1.67;;
2848;SDS011;59355;52.416;13.412;2023-02-25T09:38:58;1.80;;;1.70;;
2848;SDS011;59355;52.416;13.412;2023-02-25T09:41:26;1.80;;;1.57;;
2848;SDS011;59355;52.416;13.412;2023-02-25T09:43:55;3.50;;;1.70;;
2848;SDS011;59355;52.416;13.412;2023-02-25T09:46:24;3.13;;;1.63;;
2848;SDS011;59355;52.416;13.412;2023-02-25T09:48:53;1.40;;;1.30;;
2848;SDS011;59355;52.416;13.412;2023-02-25T09:51:22;1.30;;;1.10;;
2848;SDS011;59355;52.416;13.412;2023-02-25T09:53:54;1.40;;;1.30;;
2848;SDS011;59355;52.416;13.412;2023-02-25T09:56:24;1.60;;;1.50;;
2848;SDS011;59355;52.416;13.412;2023-02-25T09:58:52;1.50;;;1.40;;
2848;SDS011;59355;52.416;13.412;2023-02-25T10:01:34;1.67;;;1.57;;
2848;SDS011;59355;52.416;13.412;2023-02-25T10:04:22;1.70;;;1.60;;
2848;SDS011;59355;52.416;13.412;2023-02-25T10:06:53;1.50;;;1.40;;
2848;SDS011;59355;52.416;13.412;2023-02-25T10:09:22;2.00;;;1.70;;
2848;SDS011;59355;52.416;13.412;2023-02-25T10:23:46;1.57;;;1.47;;
2848;SDS011;59355;52.416;13.412;2023-02-25T10:26:33;1.40;;;1.20;;
2848;SDS011;59355;52.416;13.412;2023-02-25T10:29:06;1.93;;;1.47;;
2848;SDS011;59355;52.416;13.412;2023-02-25T10:31:37;1.70;;;1.40;;
2848;SDS011;59355;52.416;13.412;2023-02-25T10:34:15;1.50;;;1.40;;
2848;SDS011;59355;52.416;13.412;2023-02-25T10:36:45;1.43;;;1.30;;
2848;SDS011;59355;52.416;13.412;2023-02-25T10:39:17;1.40;;;1.23;;
2848;SDS011;59355;52.416;13.412;2023-02-25T10:41:42;2.23;;;1.40;;
2848;SDS011;59355;52.416;13.412;2023-02-25T10:44:08;1.30;;;1.20;;
2848;SDS011;59355;52.416;13.412;2023-02-25T10:46:35;1.30;;;1.20;;
2848;SDS011;59355;52.416;13.412;2023-02-25T10:49:16;2.17;;;1.13;;
2848;SDS011;59355;52.416;13.412;2023-02-25T10:54:49;1.50;;;1.40;;
2848;SDS011;59355;52.416;13.412;2023-02-25T10:57:16;2.10;;;1.90;;
2848;SDS011;59355;52.416;13.412;2023-02-25T10:59:46;2.20;;;2.00;;
2848;SDS011;59355;52.416;13.412;2023-02-25T11:02:28;1.87;;;1.53;;
2848;SDS011;59355;52.416;13.412;2023-02-25T11:04:55;1.60;;;1.50;;
2848;SDS011;59355;52.416;13.412;2023-02-25T11:07:34;2.33;;;1.80;;
2848;SDS011;59355;52.416;13.412;2023-02-25T11:10:13;2.10;;;1.83;;
2848;SDS011;59355;52.416;13.412;2023-02-25T11:12:44;3.77;;;1.80;;
2848;SDS011;59355;52.416;13.412;2023-02-25T11:15:18;1.50;;;1.40;;
2848;SDS011;59355;52.416;13.412;2023-02-25T11:17:52;2.13;;;1.93;;
2848;SDS011;59355;52.416;13.412;2023-02-25T11:20:25;2.30;;;2.10;;
2848;SDS011;59355;52.416;13.412;2023-02-25T11:22:52;2.10;;;1.90;;
2848;SDS011;59355;52.416;13.412;2023-02-25T11:25:20;1.70;;;1.60;;
2848;SDS011;59355;52.416;13.412;2023-02-25T11:27:52;2.43;;;2.03;;
2848;SDS011;59355;52.416;13.412;2023-02-25T11:30:32;1.30;;;1.20;;
2848;SDS011;59355;52.416;13.412;2023-02-25T11:32:59;1.73;;;1.60;;
2848;SDS011;59355;52.416;13.412;2023-02-25T11:35:28;1.40;;;1.30;;
2848;SDS011;59355;52.416;13.412;2023-02-25T11:37:56;2.90;;;1.77;;
2848;SDS011;59355;52.416;13.412;2023-02-25T11:40:32;1.67;;;1.57;;
2848;SDS011;59355;52.416;13.412;2023-02-25T11:45:31;1.50;;;1.40;;
2848;SDS011;59355;52.416;13.412;2023-02-25T11:47:58;1.60;;;1.50;;
2848;SDS011;59355;52.416;13.412;2023-02-25T11:50:30;2.13;;;1.93;;
2848;SDS011;59355;52.416;13.412;2023-02-25T11:53:03;2.20;;;1.70;;
2848;SDS011;59355;52.416;13.412;2023-02-25T11:55:39;1.80;;;1.70;;
2848;SDS011;59355;52.416;13.412;2023-02-25T11:58:38;1.60;;;1.50;;
2848;SDS011;59355;52.416;13.412;2023-02-25T12:01:20;2.00;;;1.90;;
2848;SDS011;59355;52.416;13.412;2023-02-25T12:06:44;1.60;;;1.50;;
2848;SDS011;59355;52.416;13.412;2023-02-25T12:09:40;1.57;;;1.47;;
2848;SDS011;59355;52.416;13.412;2023-02-25T12:28:50;2.53;;;1.57;;
2848;SDS011;59355;52.416;13.412;2023-02-25T12:31:27;1.73;;;1.63;;
2848;SDS011;59355;52.416;13.412;2023-02-25T12:34:07;2.30;;;2.07;;
2848;SDS011;59355;52.416;13.412;2023-02-25T12:39:39;2.40;;;2.20;;
2848;SDS011;59355;52.416;13.412;2023-02-25T12:44:55;4.90;;;2.00;;
2848;SDS011;59355;52.416;13.412;2023-02-25T12:47:51;2.30;;;2.10;;
2848;SDS011;59355;52.416;13.412;2023-02-25T12:53:20;2.00;;;1.80;;
2848;SDS011;59355;52.416;13.412;2023-02-25T13:01:29;4.47;;;1.87;;
2848;SDS011;59355;52.416;13.412;2023-02-25T13:09:58;1.60;;;1.50;;
2848;SDS011;59355;52.416;13.412;2023-02-25T13:12:40;1.60;;;1.50;;
2848;SDS011;59355;52.416;13.412;2023-02-25T13:15:15;2.17;;;1.80;;
2848;SDS011;59355;52.416;13.412;2023-02-25T13:20:24;1.60;;;1.50;;
2848;SDS011;59355;52.416;13.412;2023-02-25T13:25:49;1.77;;;1.67;;
2848;SDS011;59355;52.416;13.412;2023-02-25T13:34:16;2.10;;;1.70;;
2848;SDS011;59355;52.416;13.412;2023-02-25T13:43:04;2.40;;;2.20;;
2848;SDS011;59355;52.416;13.412;2023-02-25T13:48:36;2.37;;;2.17;;
2848;SDS011;59355;52.416;13.412;2023-02-25T13:53:57;2.33;;;1.97;;
2848;SDS011;59355;52.416;13.412;2023-02-25T14:10:45;3.03;;;1.97;;
2848;SDS011;59355;52.416;13.412;2023-02-25T14:13:37;2.80;;;2.30;;
2848;SDS011;59355;52.416;13.412;2023-02-25T14:19:10;2.10;;;1.97;;
2848;SDS011;59355;52.416;13.412;2023-02-25T14:21:56;2.00;;;1.60;;
2848;SDS011;59355;52.416;13.412;2023-02-25T14:24:45;2.17;;;1.53;;
2848;SDS011;59355;52.416;13.412;2023-02-25T14:27:36;2.30;;;1.70;;
2848;SDS011;59355;52.416;13.412;2023-02-25T14:38:41;2.10;;;1.90;;
2848;SDS011;59355;52.416;13.412;2023-02-25T14:41:27;2.40;;;2.10;;
2848;SDS011;59355;52.416;13.412;2023-02-25T14:44:06;2.30;;;1.70;;
2848;SDS011;59355;52.416;13.412;2023-02-25T14:46:38;1.90;;;1.80;;
2848;SDS011;59355;52.416;13.412;2023-02-25T14:49:19;2.47;;;1.57;;
2848;SDS011;59355;52.416;13.412;2023-02-25T14:52:25;2.43;;;2.10;;
2848;SDS011;59355;52.416;13.412;2023-02-25T15:00:57;3.07;;;1.90;;
2848;SDS011;59355;52.416;13.412;2023-02-25T15:03:45;2.50;;;2.30;;
2848;SDS011;59355;52.416;13.412;2023-02-25T15:11:49;2.70;;;2.20;;
2848;SDS011;59355;52.416;13.412;2023-02-25T15:20:10;2.77;;;2.50;;
2848;SDS011;59355;52.416;13.412;2023-02-25T15:22:51;2.23;;;2.03;;
2848;SDS011;59355;52.416;13.412;2023-02-25T15:27:44;1.90;;;1.63;;
2848;SDS011;59355;52.416;13.412;2023-02-25T15:30:14;3.03;;;2.23;;
2848;SDS011;59355;52.416;13.412;2023-02-25T15:42:56;1.57;;;1.40;;
2848;SDS011;59355;52.416;13.412;2023-02-25T15:48:18;2.00;;;1.60;;
2848;SDS011;59355;52.416;13.412;2023-02-25T15:53:10;8.00;;;1.70;;
2848;SDS011;59355;52.416;13.412;2023-02-25T16:00:56;1.63;;;1.53;;
2848;SDS011;59355;52.416;13.412;2023-02-25T16:06:00;4.20;;;1.70;;
2848;SDS011;59355;52.416;13.412;2023-02-25T16:08:29;1.50;;;1.40;;
2848;SDS011;59355;52.416;13.412;2023-02-25T16:10:59;2.87;;;1.97;;
2848;SDS011;59355;52.416;13.412;2023-02-25T16:13:33;1.67;;;1.57;;
2848;SDS011;59355;52.416;13.412;2023-02-25T16:15:59;1.93;;;1.70;;
2848;SDS011;59355;52.416;13.412;2023-02-25T16:18:36;2.73;;;1.90;;
2848;SDS011;59355;52.416;13.412;2023-02-25T16:21:06;2.30;;;2.10;;
2848;SDS011;59355;52.416;13.412;2023-02-25T16:23:37;2.83;;;2.10;;
2848;SDS011;59355;52.416;13.412;2023-02-25T16:26:28;2.87;;;2.50;;
2848;SDS011;59355;52.416;13.412;2023-02-25T16:29:02;2.40;;;2.20;;
2848;SDS011;59355;52.416;13.412;2023-02-25T16:37:18;2.33;;;2.13;;
2848;SDS011;59355;52.416;13.412;2023-02-25T16:40:04;2.13;;;2.00;;
2848;SDS011;59355;52.416;13.412;2023-02-25T16:42:30;2.60;;;2.40;;
2848;SDS011;59355;52.416;13.412;2023-02-25T16:45:01;2.40;;;2.20;;
2848;SDS011;59355;52.416;13.412;2023-02-25T16:47:34;2.87;;;2.67;;
2848;SDS011;59355;52.416;13.412;2023-02-25T16:50:08;2.60;;;2.40;;
2848;SDS011;59355;52.416;13.412;2023-02-25T16:52:36;3.10;;;2.80;;
2848;SDS011;59355;52.416;13.412;2023-02-25T16:55:05;5.30;;;2.97;;
2848;SDS011;59355;52.416;13.412;2023-02-25T16:57:34;2.60;;;2.40;;
2848;SDS011;59355;52.416;13.412;2023-02-25T17:02:46;2.57;;;1.60;;
2848;SDS011;59355;52.416;13.412;2023-02-25T17:05:56;2.53;;;2.33;;
2848;SDS011;59355;52.416;13.412;2023-02-25T17:08:12;2.40;;;2.13;;
2848;SDS011;59355;52.416;13.412;2023-02-25T17:10:44;2.13;;;1.80;;
2848;SDS011;59355;52.416;13.412;2023-02-25T17:13:22;2.77;;;2.57;;
2848;SDS011;59355;52.416;13.412;2023-02-25T17:15:49;4.83;;;2.53;;
2848;SDS011;59355;52.416;13.412;2023-02-25T17:18:18;2.50;;;2.30;;
2848;SDS011;59355;52.416;13.412;2023-02-25T17:20:48;3.33;;;2.60;;
2848;SDS011;59355;52.416;13.412;2023-02-25T17:23:14;3.80;;;2.57;;
2848;SDS011;59355;52.416;13.412;2023-02-25T17:25:41;2.17;;;1.97;;
2848;SDS011;59355;52.416;13.412;2023-02-25T17:28:08;2.93;;;2.57;;
2848;SDS011;59355;52.416;13.412;2023-02-25T17:30:42;2.80;;;2.20;;
2848;SDS011;59355;52.416;13.412;2023-02-25T17:33:24;3.03;;;2.27;;
2848;SDS011;59355;52.416;13.412;2023-02-25T17:35:53;2.30;;;2.10;;
2848;SDS011;59355;52.416;13.412;2023-02-25T17:38:21;2.50;;;2.30;;
2848;SDS011;59355;52.416;13.412;2023-02-25T17:40:48;2.53;;;2.27;;
2848;SDS011;59355;52.416;13.412;2023-02-25T17:43:19;2.73;;;2.13;;
2848;SDS011;59355;52.416;13.412;2023-02-25T17:48:17;3.30;;;2.67;;
2848;SDS011;59355;52.416;13.412;2023-02-25T17:50:50;2.57;;;2.17;;
2848;SDS011;59355;52.416;13.412;2023-02-25T17:53:24;2.53;;;2.00;;
2848;SDS011;59355;52.416;13.412;2023-02-25T17:55:53;2.60;;;2.40;;
2848;SDS011;59355;52.416;13.412;2023-02-25T17:58:20;2.20;;;1.80;;
2848;SDS011;59355;52.416;13.412;2023-02-25T18:00:57;2.53;;;2.27;;
2848;SDS011;59355;52.416;13.412;2023-02-25T18:03:23;1.90;;;1.63;;